LiveATC.Net - Listen to live air traffic control over the Internet! Contact LiveATC.net for advertising information

Find LiveATC Audio Streams


Airport/ARTCC Code

Frequency
(e.g., 124.400, 128.75)
Site-wide search

Browse LiveATC Feeds
LiveATC Coverage Map
Top 50 LiveATC Feeds
Bad Weather Areas

LiveATC FAQ
Offer a LiveATC Feed
Contact LiveATC.net
Press Inquiries

LiveATC on iPhone
LiveATC on Android

LiveATC Mobile
(Mobile browser)

ATC Audio Archives
Interesting Recordings

LiveATC Forums

Home Page
About LiveATC.net
Make a Donation
LiveATC Bookstore

Terms of Use
Privacy Policy

ATC/Radar Sites
U.S. ARTCC Freqs
Canadian Air Freqs

AIRMETs/SIGMETs

FAA Airport Status
Nat'l Airspace Status
Arrival Demand Charts


Server Software By:
Icecast.org
Liquidsoap


Current Potentially Bad Weather Airports
(updated every 30 minutes - sorted alphabetically by ICAO code)



This page lists LiveATC.net airport areas that may be interesting to listen to because of challenging flying (weather) conditions. Challenging weather conditions include low ceilings, limited visibility, high or gusty winds, or thunderstorms. This is an evolving new feature and comments are welcome.

Updated: Wed Oct 22 06:10:01 UTC 2014
Click on airport name to go to that airport area's feeds.

CYZF Ground/Tower
WX MAP UNAVAILABLECYZF 220553Z 01007KT 5SM -SN OVC007 M01/M01 A2962 RMK SC8 SLP045
EHAM Approach/Radar
WX MAP UNAVAILABLEEHAM 220555Z 31016KT 9999 -SHRA FEW025CB BKN040 10/06 Q1014 TEMPO 32025G36KT 7000
ENVA Gnd/Twr/App
WX MAP UNAVAILABLEENVA 220550Z 13018KT CAVOK 09/M01 Q1006 TEMPO 13020G30KT RMK WIND 670FT 15019G33KT
EPGD Tower/Approach
WX MAP UNAVAILABLEEPGD 220530Z 13005KT 2000 BR OVC003 09/09 Q1001
EYVI Twr/App/Misc
WX MAP UNAVAILABLEEYVI 220550Z 07009KT 050V120 8000 OVC006 01/00 Q1009 NOSIG
KALB Gnd/Twr/Approach
kalbKALB 220551Z 01010KT 9SM OVC009 10/08 A3001 RMK AO2 SLP162 60026 T01000083 10111 20100 58003
KASH Gnd/Twr/Misc
kashKASH 220551Z AUTO 35005KT 10SM OVC008 10/09 A3002 RMK AO2 55003 60000 T01000094 10122 20100 SLP416 $
KAUG CTAF/App/ZBW02
kaugKAUG 220553Z AUTO 02011KT 6SM -RA BR OVC004 07/06 A3012 RMK AO2 SLP202 P0003 60018 T00670061 10072 20067 58000
KBAF Ground/Tower
kbafKBAF 220553Z 02009KT 10SM OVC009 12/09 A2997 RMK AO2 SLP151 T01170089 10128 20117 58001
Boston App (North Satellite)
kbedKBED 220556Z AUTO 36010KT 5SM BR OVC004 09/09 A2998 RMK AO2 SLP165 T00940094 10133 20094 58002 TSNO
KNEL/KWRI/ZNY
kwriKWRI 220558Z AUTO 01006KT 10SM SCT014 BKN090 12/12 A2984 RMK AO2 LTG DSNT W SLP108 T01200115 10136 20112 57009
KBLM/N12/3N6/KMJX
kmjxKMJX 220555Z AUTO 36003KT 10SM SCT019 BKN085 BKN110 13/12 A2985 RMK AO1 LTG DSNT NE 10130 20100 57010
KBLM/N12/3N6/KMJX
kblmKBLM 220555Z AUTO 02006KT 10SM SCT011 14/11 A2985 RMK AO1 LTG DSNT NE 10140 20120 57014
KBOS App (North/Rockport)
kbosKBOS 220554Z 35010KT 10SM OVC005 11/10 A2998 RMK AO2 SLP152 T01110100 10144 20111 58004
MA/NH/RI/CT Area CTAF
ksfzKSFZ 220555Z 01012G15KT 2 1/2SM OVC002 11/07 A2996 RMK AO1 10130 20110 54000
MA/NH/RI/CT Area CTAF
kfitKFIT 220552Z AUTO 01007KT 10SM OVC009 11/08 A3001 RMK AO2 SLP163 60000 T01060083 10133 20106 58003
MA/NH/RI/CT Area CTAF
kpymKPYM 220552Z AUTO 01010KT 7SM OVC003 12/12 A2995 RMK AO2 RAE41 SLP141 P0001 60002 T01220122 10133 20106 58003
KBTV Del/Gnd/Twr/App
kbtvKBTV 220554Z 33009KT 6SM BR OVC003 08/07 A3010 RMK AO2 SLP195 60007 T00830067 10094 20083 51002 $
KBVI Ground/Tower
kbviKBVI 220047Z 31005KT 10SM OVC007 08/07 A3000 RMK LAST
KBVY Ground/Tower
kbvyKBVY 220553Z AUTO 01008KT 10SM OVC004 10/09 A2999 RMK AO2 SLP149 T01000089 10133 20100 58001
KCAK Del/Gnd/Twr/App
kcakKCAK 220551Z 01008KT 10SM OVC009 08/06 A3009 RMK AO2 CIG 006V011 SLP192 60003 T00830061 10089 20083 53003 $
KFHR CTAF
WX MAP UNAVAILABLEKFHR 220553Z AUTO 13027G37KT 10SM SCT095 14/09 A2961 RMK AO2 PK WND 14041/0536 RAB38E52 SLP028 P0000 60000 T01390089 10144 20133 56039
KJYO CTAF/Del/SFRA
kjyoKJYO 220555Z AUTO 35006KT 10SM SCT025 BKN050 OVC060 11/11 A2991 RMK AO2 LTG DSNT NE
KILG Tower
kilgKILG 220551Z 36007KT 10SM BKN055 OVC075 13/11 A2986 RMK AO2 LTG DSNT SW AND NW SLP110 T01280106 10150 20128 58008
KISP (NY Approach)
kispKISP 220556Z AUTO 05009KT 10SM BKN010 BKN013 OVC020 15/13 A2987 RMK AO2 LTG DSNT SW SLP116 60018 T01500133 10150 20122 56009
KLNS Tower
klnsKLNS 220553Z AUTO 03009KT 10SM BKN021 BKN029 OVC036 13/09 A2988 RMK AO2 LTG DSNT SE SLP117 T01280094 10139 20117 58010
KLWM Ground/Tower
klwmKLWM 220554Z AUTO 02007KT 10SM OVC007 09/08 A3002 RMK AO2 SLP164 60000 T00940083 10122 20094 56004
KMMU ATIS
kmmuKMMU 220535Z AUTO 00000KT 2SM BR BKN022 OVC026 11/09 A2991 RMK AO2 LTG DSNT SE
KMTN Ground/Misc
kmtnKMTN 220548Z AUTO 00000KT 5SM RA OVC015 12/12 A2989 RMK AO2 P0005 LTG DSNT NE AND E
KORH Ground/Tower/App
korhKORH 220554Z AUTO 03009G16KT 3SM BR OVC002 09/08 A2998 RMK AO2 SLP153 T00890083 10117 20089 56003
KOWD Ground/Tower
kowdKOWD 220553Z AUTO VRB06KT 6SM BR OVC005 11/10 A2997 RMK AO2 SLP147 T01110100 10139 20111 58003
KPOU Ground/Tower
kpouKPOU 220553Z AUTO 35006KT 7SM OVC007 12/10 A2995 RMK AO2 SLP137 60010 T01170100 10122 20111 58004 TSNO
KPVD Del/Gnd/Twr/App
kpvdKPVD 220551Z AUTO 02011KT 8SM OVC006 13/12 A2995 RMK AO2 SLP142 T01280117 10139 20128 58004
KRVS Tower
krvsKRVS 220553Z AUTO 00000KT 2 1/2SM BR CLR 16/15 A3007 RMK AO2 SLP189 T01560150 10239 20156 402780133 50001
KSWF Ground/Tower
kswfKSWF 220545Z VRB03KT 7SM OVC009 11/11 A2994
KUUU CTAF/Clearance
kuuuKUUU 220553Z AUTO 02010KT 2 1/2SM BR OVC004 14/13 A2993 RMK AO2 SLP134 T01440128 10156 20144 58005
LROP Bucharest Twr/App
WX MAP UNAVAILABLELROP 220530Z 06005KT 9999 OVC009 11/11 Q1006 NOSIG
LUKK Gnd/Twr/App/ACC
WX MAP UNAVAILABLELUKK 220600Z VRB02KT 0100 R08/0200N FG VV000 07/06 Q1008 R08/290154 NOSIG
MMMD Tower/Approach
WX MAP UNAVAILABLEMMMD 220548Z 09004KT 6SM OVC005 23/23 A2977 RMK SLP083 58006 970 8/5// HZY LWR SC E
MMTC Torreon, Mexico
WX MAP UNAVAILABLEMMTC 220433Z 00000KT 4SM TSRA OVC020 19/16 A3004 RMK 8/9// RAB20 CB OVHD
UNNT Gnd/Twr/App/Radar/Misc
WX MAP UNAVAILABLEUNNT 220530Z 23005MPS 9999 -SHSN OVC020CB 00/M04 Q1021 25090070 16090070 NOSIG RMK QFE756/1008
UUEE Twr/App/Radar
WX MAP UNAVAILABLEUUEE 220530Z 32007MPS 5000 -SN OVC026 M06/M09 Q1010 75420249 25450245 NOSIG